createdAt,value
2023-01-22T00:03:37.543Z,4.70
2023-01-22T00:08:40.671Z,4.68
2023-01-22T00:13:43.244Z,4.43
2023-01-22T00:18:45.698Z,4.25
2023-01-22T00:23:47.372Z,4.80
2023-01-22T00:28:49.063Z,4.53
2023-01-22T00:33:50.742Z,4.55
2023-01-22T00:38:53.733Z,4.22
2023-01-22T00:43:56.612Z,4.70
2023-01-22T00:48:58.501Z,3.47
2023-01-22T00:54:00.346Z,4.40
2023-01-22T00:59:02.073Z,5.30
2023-01-22T01:04:05.522Z,4.18
2023-01-22T01:09:07.325Z,4.63
2023-01-22T01:14:09.096Z,4.72
2023-01-22T01:19:12.499Z,4.22
2023-01-22T01:24:14.753Z,4.75
2023-01-22T01:29:16.630Z,4.22
2023-01-22T01:34:19.696Z,4.95
2023-01-22T01:39:21.729Z,4.07
2023-01-22T01:44:24.262Z,4.20
2023-01-22T01:49:46.119Z,3.95
2023-01-22T01:54:52.349Z,3.85
2023-01-22T01:59:55.131Z,4.22
2023-01-22T02:04:59.410Z,4.35
2023-01-22T02:10:06.205Z,3.65
2023-01-22T02:15:09.172Z,3.63
2023-01-22T02:20:11.408Z,4.03
2023-01-22T02:25:13.217Z,3.83
2023-01-22T02:30:15.288Z,4.10
2023-01-22T02:35:20.196Z,4.35
2023-01-22T02:40:22.176Z,3.83
2023-01-22T02:45:24.446Z,3.63
2023-01-22T02:50:26.170Z,4.18
2023-01-22T02:55:27.885Z,4.07
2023-01-22T03:00:29.750Z,3.92
2023-01-22T03:05:31.475Z,4.40
2023-01-22T03:10:33.238Z,3.97
2023-01-22T03:15:57.580Z,4.55
2023-01-22T03:21:15.611Z,4.60
2023-01-22T03:26:18.915Z,3.92
2023-01-22T03:31:20.699Z,4.40
2023-01-22T03:36:22.436Z,4.55
2023-01-22T03:41:24.165Z,4.80
2023-01-22T03:46:26.365Z,4.63
2023-01-22T03:51:28.165Z,4.15
2023-01-22T03:56:30.177Z,4.55
2023-01-22T04:01:33.691Z,4.60
2023-01-22T04:06:35.540Z,4.22
2023-01-22T04:11:37.663Z,4.55
2023-01-22T04:16:39.480Z,4.63
2023-01-22T04:21:41.295Z,4.60
2023-01-22T04:26:43.163Z,4.85
2023-01-22T04:31:44.995Z,4.50
2023-01-22T04:36:46.704Z,5.10
2023-01-22T04:41:48.418Z,5.22
2023-01-22T04:46:50.174Z,5.35
2023-01-22T04:51:54.078Z,5.20
2023-01-22T04:56:55.829Z,5.55
2023-01-22T05:01:57.594Z,5.00
2023-01-22T05:06:59.315Z,4.97
2023-01-22T05:12:01.037Z,4.75
2023-01-22T05:17:02.751Z,5.05
2023-01-22T05:22:05.067Z,5.13
2023-01-22T05:27:06.791Z,4.88
2023-01-22T05:32:10.033Z,4.80
2023-01-22T05:37:13.141Z,5.03
2023-01-22T05:42:16.001Z,4.75
2023-01-22T05:47:17.763Z,4.78
2023-01-22T05:52:20.851Z,5.15
2023-01-22T05:57:22.585Z,4.90
2023-01-22T06:02:24.346Z,5.07
2023-01-22T06:07:26.315Z,4.78
2023-01-22T06:12:28.134Z,4.53
2023-01-22T06:17:29.965Z,5.22
2023-01-22T06:22:32.033Z,4.88
2023-01-22T06:27:34.724Z,5.13
2023-01-22T06:32:37.067Z,4.85
2023-01-22T06:37:38.793Z,5.25
2023-01-22T06:42:40.674Z,4.97
2023-01-22T06:47:47.269Z,5.25
2023-01-22T06:52:49.033Z,4.78
2023-01-22T06:57:52.746Z,4.75
2023-01-22T07:02:54.739Z,4.97
2023-01-22T07:07:56.465Z,5.18
2023-01-22T07:13:01.682Z,5.07
2023-01-22T07:18:03.603Z,4.57
2023-01-22T07:23:05.294Z,5.10
2023-01-22T07:28:07.744Z,4.97
2023-01-22T07:33:11.398Z,5.38
2023-01-22T07:38:14.431Z,5.28
2023-01-22T07:43:17.730Z,5.00
2023-01-22T07:48:19.432Z,5.82
2023-01-22T07:53:22.136Z,5.72
2023-01-22T07:58:23.905Z,5.97
2023-01-22T08:03:25.668Z,5.72
2023-01-22T08:08:27.414Z,5.97
2023-01-22T08:13:30.765Z,5.32
2023-01-22T08:18:32.633Z,4.82
2023-01-22T08:23:34.432Z,5.00
2023-01-22T08:28:36.686Z,4.82
2023-01-22T08:33:38.393Z,4.93
2023-01-22T08:38:41.181Z,5.18
2023-01-22T08:43:43.465Z,5.00
2023-01-22T08:48:48.320Z,4.85
2023-01-22T08:53:51.325Z,5.68
2023-01-22T08:58:58.761Z,5.75
2023-01-22T09:04:00.896Z,5.13
2023-01-22T09:09:02.810Z,5.13
2023-01-22T09:14:04.655Z,5.95
2023-01-22T09:19:07.209Z,5.90
2023-01-22T09:24:09.767Z,5.53
2023-01-22T09:29:11.545Z,6.30
2023-01-22T09:34:13.362Z,5.82
2023-01-22T09:39:15.159Z,5.93
2023-01-22T09:44:27.312Z,6.57
2023-01-22T09:49:38.029Z,5.90
2023-01-22T09:54:40.233Z,6.40
2023-01-22T09:59:51.780Z,6.47
2023-01-22T10:05:00.551Z,6.30
2023-01-22T10:10:22.696Z,6.10
2023-01-22T10:15:25.007Z,7.10
2023-01-22T10:20:27.701Z,7.10
2023-01-22T10:25:29.845Z,6.97
2023-01-22T10:30:32.875Z,7.20
2023-01-22T10:35:44.206Z,6.95
2023-01-22T10:40:45.970Z,7.95
2023-01-22T10:46:16.134Z,7.78
2023-01-22T10:51:22.704Z,7.93
2023-01-22T10:56:35.865Z,7.53
2023-01-22T11:01:43.042Z,7.70
2023-01-22T11:06:50.232Z,8.02
2023-01-22T11:12:08.157Z,8.13
2023-01-22T11:17:22.249Z,7.78
2023-01-22T11:22:34.831Z,8.73
2023-01-22T11:28:05.985Z,8.60
2023-01-22T11:33:29.698Z,8.85
2023-01-22T11:39:18.643Z,10.00
2023-01-22T11:45:16.199Z,7.80
2023-01-22T11:50:30.279Z,9.63
2023-01-22T11:55:58.489Z,9.50
2023-01-22T12:01:00.615Z,9.85
2023-01-22T12:06:59.150Z,9.30
2023-01-22T12:12:30.271Z,9.23
2023-01-22T12:17:52.525Z,9.48
2023-01-22T12:23:09.965Z,9.13
2023-01-22T12:28:15.245Z,9.35
2023-01-22T12:33:25.455Z,8.52
2023-01-22T12:38:30.479Z,9.07
2023-01-22T12:43:41.162Z,8.85
2023-01-22T12:49:09.770Z,9.00
2023-01-22T12:54:29.775Z,8.88
2023-01-22T12:59:43.727Z,9.02
2023-01-22T13:04:45.671Z,8.55
2023-01-22T13:09:47.642Z,8.15
2023-01-22T13:14:50.521Z,8.95
2023-01-22T13:19:52.656Z,8.82
2023-01-22T13:24:57.438Z,8.20
2023-01-22T13:30:21.890Z,8.95
2023-01-22T13:35:23.601Z,8.50
2023-01-22T13:40:28.183Z,9.25
2023-01-22T13:45:33.166Z,8.40
2023-01-22T13:50:37.779Z,8.80
2023-01-22T13:55:39.653Z,8.52
2023-01-22T14:00:52.415Z,8.40
2023-01-22T14:06:14.522Z,8.30
2023-01-22T14:11:16.917Z,7.78
2023-01-22T14:16:21.972Z,8.20
2023-01-22T14:21:23.836Z,8.20
2023-01-22T14:26:25.675Z,8.05
2023-01-22T14:31:27.495Z,8.32
2023-01-22T14:36:29.503Z,7.80
2023-01-22T14:41:31.303Z,7.72
2023-01-22T14:46:33.213Z,7.82
2023-01-22T14:51:35.568Z,8.00
2023-01-22T14:56:37.403Z,8.07
2023-01-22T15:01:39.470Z,7.57
2023-01-22T15:06:41.390Z,7.65
2023-01-22T15:11:43.203Z,7.95
2023-01-22T15:16:45.050Z,8.70
2023-01-22T15:21:46.963Z,7.93
2023-01-22T15:26:49.511Z,8.57
2023-01-22T15:31:51.375Z,8.15
2023-01-22T15:36:53.292Z,7.95
2023-01-22T15:41:55.084Z,7.95
2023-01-22T15:47:01.021Z,8.20
2023-01-22T15:52:04.062Z,8.52
2023-01-22T15:57:05.896Z,8.55
2023-01-22T16:02:10.575Z,9.50
2023-01-22T16:07:12.460Z,9.43
2023-01-22T16:12:16.458Z,8.55
2023-01-22T16:17:18.167Z,9.85
2023-01-22T16:22:20.360Z,9.95
2023-01-22T16:27:22.108Z,10.98
2023-01-22T16:32:24.007Z,9.23
2023-01-22T16:37:26.284Z,9.30
2023-01-22T16:42:28.144Z,9.38
2023-01-22T16:47:29.853Z,8.63
2023-01-22T16:52:32.008Z,9.15
2023-01-22T16:57:33.903Z,9.40
2023-01-22T17:02:36.253Z,11.43
2023-01-22T17:07:38.350Z,9.40
2023-01-22T17:12:40.240Z,8.60
2023-01-22T17:17:43.823Z,8.65
2023-01-22T17:22:45.859Z,9.02
2023-01-22T17:27:50.342Z,8.98
2023-01-22T17:32:52.964Z,8.43
2023-01-22T17:37:55.142Z,8.07
2023-01-22T17:42:57.115Z,8.25
2023-01-22T17:48:00.006Z,8.18
2023-01-22T17:53:02.912Z,7.97
2023-01-22T17:58:04.573Z,7.72
2023-01-22T18:03:07.387Z,8.52
2023-01-22T18:08:12.119Z,9.18
2023-01-22T18:13:14.076Z,8.63
2023-01-22T18:18:16.425Z,7.95
2023-01-22T18:23:18.431Z,8.55
2023-01-22T18:28:20.920Z,8.25
2023-01-22T18:33:24.394Z,9.15
2023-01-22T18:38:28.513Z,8.40
2023-01-22T18:43:33.014Z,8.32
2023-01-22T18:48:34.864Z,8.10
2023-01-22T18:53:40.407Z,8.98
2023-01-22T18:58:44.735Z,8.43
2023-01-22T19:03:52.156Z,8.38
2023-01-22T19:09:03.660Z,8.63
2023-01-22T19:14:09.066Z,8.65
2023-01-22T19:19:13.699Z,8.57
2023-01-22T19:24:18.468Z,8.77
2023-01-22T19:29:23.944Z,8.93
2023-01-22T19:34:28.895Z,8.55
2023-01-22T19:39:34.368Z,9.05
2023-01-22T19:44:36.150Z,8.20
2023-01-22T19:49:38.704Z,9.25
2023-01-22T19:54:44.086Z,8.52
2023-01-22T19:59:47.968Z,8.18
2023-01-22T20:04:50.740Z,8.40
2023-01-22T20:09:54.991Z,8.50
2023-01-22T20:14:58.013Z,7.90
2023-01-22T20:20:06.175Z,8.48
2023-01-22T20:25:11.333Z,7.57
2023-01-22T20:30:13.317Z,8.05
2023-01-22T20:35:16.152Z,8.38
2023-01-22T20:40:18.242Z,8.20
2023-01-22T20:45:20.224Z,8.27
2023-01-22T20:50:22.727Z,8.38
2023-01-22T20:55:24.713Z,7.47
2023-01-22T21:00:27.959Z,7.63
2023-01-22T21:05:29.952Z,8.38
2023-01-22T21:10:31.819Z,8.30
2023-01-22T21:15:33.756Z,8.95
2023-01-22T21:20:37.546Z,8.15
2023-01-22T21:25:39.335Z,8.70
2023-01-22T21:30:41.386Z,8.88
2023-01-22T21:35:48.812Z,8.40
2023-01-22T21:40:50.712Z,8.25
2023-01-22T21:46:11.200Z,8.00
2023-01-22T21:51:13.283Z,8.50
2023-01-22T21:56:15.325Z,8.38
2023-01-22T22:01:20.953Z,9.02
2023-01-22T22:06:22.806Z,8.02
2023-01-22T22:11:26.375Z,8.50
2023-01-22T22:16:28.252Z,8.60
2023-01-22T22:21:30.297Z,8.55
2023-01-22T22:26:32.459Z,9.07
2023-01-22T22:31:34.476Z,9.07
2023-01-22T22:36:36.644Z,9.52
2023-01-22T22:41:39.255Z,8.75
2023-01-22T22:46:41.285Z,8.88
2023-01-22T22:51:43.987Z,9.35
2023-01-22T22:56:47.460Z,9.88
2023-01-22T23:01:49.819Z,8.95
2023-01-22T23:06:51.976Z,10.55
2023-01-22T23:11:55.951Z,9.85
2023-01-22T23:16:57.859Z,10.52
2023-01-22T23:22:00.565Z,10.15
2023-01-22T23:27:02.280Z,9.32
2023-01-22T23:32:04.065Z,9.73
2023-01-22T23:37:05.812Z,9.15
2023-01-22T23:42:07.650Z,9.73
2023-01-22T23:47:09.369Z,10.35
2023-01-22T23:52:11.089Z,10.23
2023-01-22T23:57:12.795Z,10.55
